Time;durP1;ratioP1;P1;durP2;ratioP2;P2;SDS_P1;SDS_P2;PMS_P1;PMS_P2;Temp;Humidity;BMP_temperature;BMP_pressure;BME280_temperature;BME280_humidity;BME280_pressure;Samples;Min_cycle;Max_cycle;Signal;HPM_P1;HPM_P2
2022/12/13 00:00:38;;;;;;;6.93;4.30;;;22.40;37.90;;;;;;6083959;28;80656;-64
2022/12/13 00:03:38;;;;;;;5.47;3.67;;;22.40;37.80;;;;;;6091978;28;86766;-69
2022/12/13 00:06:39;;;;;;;5.85;3.90;;;22.40;37.80;;;;;;6087956;28;80786;-70
2022/12/13 00:09:41;;;;;;;7.35;4.40;;;22.40;37.80;;;;;;6095164;28;87815;-70
2022/12/13 00:12:42;;;;;;;7.05;4.03;;;22.40;37.70;;;;;;6088957;28;82150;-70
2022/12/13 00:15:42;;;;;;;5.43;3.78;;;22.40;37.60;;;;;;6098128;28;80683;-70
2022/12/13 00:18:43;;;;;;;5.78;3.97;;;22.40;37.50;;;;;;6097530;28;81281;-70
2022/12/13 00:21:43;;;;;;;4.80;3.55;;;22.30;37.40;;;;;;6089992;28;80572;-71
2022/12/13 00:24:44;;;;;;;5.45;3.78;;;22.40;37.70;;;;;;6086030;28;80513;-71
2022/12/13 00:27:45;;;;;;;6.72;4.00;;;22.30;37.40;;;;;;6098625;28;80393;-72
2022/12/13 00:30:45;;;;;;;5.65;3.90;;;22.40;37.30;;;;;;6078582;28;82860;-70
2022/12/13 00:33:46;;;;;;;5.88;3.83;;;22.30;37.20;;;;;;6100152;28;80605;-70
2022/12/13 00:36:47;;;;;;;5.40;3.90;;;22.30;37.20;;;;;;6088292;28;81407;-69
2022/12/13 00:39:47;;;;;;;5.07;3.70;;;22.30;37.20;;;;;;6097523;28;86617;-59
2022/12/13 00:42:48;;;;;;;6.15;3.88;;;22.30;37.10;;;;;;6098065;28;80901;-60
2022/12/13 00:45:48;;;;;;;7.80;4.78;;;22.30;37.10;;;;;;6093308;28;85484;-60
2022/12/13 00:48:49;;;;;;;5.95;4.13;;;22.30;37.00;;;;;;6088990;28;80062;-58
2022/12/13 00:51:49;;;;;;;6.18;3.83;;;22.30;37.00;;;;;;6089579;28;83371;-60
2022/12/13 00:54:50;;;;;;;4.60;3.50;;;22.30;37.20;;;;;;6099059;28;80911;-60
2022/12/13 00:57:50;;;;;;;6.53;3.75;;;22.30;37.10;;;;;;6100504;28;80551;-71
2022/12/13 01:00:51;;;;;;;5.55;4.15;;;22.30;37.00;;;;;;6098242;28;80516;-71
2022/12/13 01:03:51;;;;;;;5.22;3.65;;;22.30;36.90;;;;;;6075466;28;81141;-69
2022/12/13 01:06:53;;;;;;;5.95;3.53;;;22.20;37.40;;;;;;6079952;28;80920;-72
2022/12/13 01:09:53;;;;;;;4.82;3.75;;;22.30;37.40;;;;;;6096277;28;81462;-70
2022/12/13 01:12:54;;;;;;;6.30;3.75;;;22.20;37.10;;;;;;6088770;28;80755;-70
2022/12/13 01:15:54;;;;;;;4.50;3.40;;;22.20;37.30;;;;;;6087412;28;80526;-67
2022/12/13 01:18:55;;;;;;;5.38;3.63;;;22.20;37.30;;;;;;6083531;28;85354;-67
2022/12/13 01:21:55;;;;;;;3.90;2.85;;;22.30;37.40;;;;;;6089009;28;80864;-67
2022/12/13 01:24:56;;;;;;;5.93;3.58;;;22.20;37.20;;;;;;6098427;28;81866;-67
2022/12/13 01:27:56;;;;;;;6.75;3.25;;;22.20;37.20;;;;;;6085325;28;80780;-65
2022/12/13 01:30:57;;;;;;;6.13;3.42;;;22.20;37.20;;;;;;6085306;28;80832;-66
2022/12/13 01:33:57;;;;;;;4.72;3.30;;;22.20;36.90;;;;;;6086888;28;82179;-66
2022/12/13 01:36:58;;;;;;;5.40;3.60;;;22.20;36.90;;;;;;6078693;28;83109;-67
2022/12/13 01:39:58;;;;;;;5.10;3.70;;;22.20;36.70;;;;;;6065401;28;81462;-67
2022/12/13 01:42:59;;;;;;;4.78;3.38;;;22.20;36.70;;;;;;6068572;28;83891;-66
2022/12/13 01:45:59;;;;;;;5.50;3.70;;;22.20;36.80;;;;;;6069953;28;81054;-66
2022/12/13 01:49:00;;;;;;;5.53;4.03;;;22.20;36.80;;;;;;6075933;28;80761;-66
2022/12/13 01:52:01;;;;;;;4.97;3.88;;;22.20;36.70;;;;;;6075332;28;80438;-64
2022/12/13 01:55:03;;;;;;;5.55;4.00;;;22.20;36.70;;;;;;6076543;28;81535;-64
2022/12/13 01:58:03;;;;;;;5.90;3.85;;;22.20;36.60;;;;;;6076783;28;80846;-64
2022/12/13 02:01:03;;;;;;;5.10;3.85;;;22.20;36.60;;;;;;6075767;28;80885;-65
2022/12/13 02:04:04;;;;;;;5.45;3.80;;;22.20;36.70;;;;;;6074713;28;86070;-62
2022/12/13 02:07:04;;;;;;;5.38;3.95;;;22.10;36.60;;;;;;6055059;28;81777;-63
2022/12/13 02:10:05;;;;;;;6.28;4.82;;;22.10;36.60;;;;;;6063215;28;84411;-63
2022/12/13 02:13:06;;;;;;;6.00;4.15;;;22.10;36.60;;;;;;6079052;28;80124;-67
2022/12/13 02:16:06;;;;;;;5.65;4.05;;;22.10;36.70;;;;;;6074795;28;80465;-66
2022/12/13 02:19:07;;;;;;;5.72;4.10;;;22.10;37.00;;;;;;6073558;28;80705;-67
2022/12/13 02:22:07;;;;;;;4.63;3.65;;;22.10;36.80;;;;;;6062964;28;84673;-67
2022/12/13 02:25:08;;;;;;;6.05;3.97;;;22.10;36.80;;;;;;6060856;28;80105;-67
2022/12/13 02:28:08;;;;;;;6.70;4.10;;;22.10;37.00;;;;;;6060798;28;82555;-64
2022/12/13 02:31:09;;;;;;;7.75;4.40;;;22.10;36.90;;;;;;6064486;28;80969;-67
2022/12/13 02:34:09;;;;;;;6.30;4.18;;;22.10;37.10;;;;;;6069058;28;87621;-66
2022/12/13 02:37:10;;;;;;;6.63;4.10;;;22.10;37.30;;;;;;6075328;28;80683;-65
2022/12/13 02:40:10;;;;;;;5.20;3.60;;;22.10;37.20;;;;;;6081536;28;80614;-66
2022/12/13 02:43:11;;;;;;;4.47;3.50;;;22.10;37.40;;;;;;6076986;28;80397;-64
2022/12/13 02:46:11;;;;;;;4.28;3.35;;;22.10;37.40;;;;;;6073964;28;81648;-66
2022/12/13 02:49:13;;;;;;;6.32;3.60;;;22.10;37.60;;;;;;6079392;28;81069;-63
2022/12/13 02:52:13;;;;;;;5.55;3.70;;;22.10;37.30;;;;;;6078140;28;80571;-63
2022/12/13 02:55:14;;;;;;;6.82;3.95;;;22.10;37.60;;;;;;6078720;28;85819;-63
2022/12/13 02:58:14;;;;;;;5.15;3.53;;;22.10;37.50;;;;;;6076395;28;80670;-64
2022/12/13 03:01:15;;;;;;;4.93;3.75;;;22.10;37.40;;;;;;6078285;28;80916;-63
2022/12/13 03:04:15;;;;;;;4.57;3.35;;;22.10;37.30;;;;;;6080643;28;81625;-64
2022/12/13 03:07:16;;;;;;;6.80;4.15;;;22.10;37.30;;;;;;6064724;28;80588;-65
2022/12/13 03:10:17;;;;;;;5.32;3.67;;;22.10;37.40;;;;;;6068673;28;80519;-65
2022/12/13 03:13:36;;;;;;;5.03;3.50;;;22.10;37.40;;;;;;6067559;28;80571;-64
2022/12/13 03:16:37;;;;;;;5.13;3.40;;;22.10;37.40;;;;;;6071613;28;80854;-64
2022/12/13 03:19:37;;;;;;;6.20;3.70;;;22.00;37.20;;;;;;6069670;28;80706;-65
2022/12/13 03:22:38;;;;;;;5.35;3.50;;;22.00;37.10;;;;;;6061459;28;80792;-64
2022/12/13 03:25:38;;;;;;;8.05;3.78;;;22.00;37.10;;;;;;6068916;28;81027;-65
2022/12/13 03:28:39;;;;;;;4.68;3.67;;;22.00;37.10;;;;;;6062155;28;80618;-65
2022/12/13 03:31:39;;;;;;;5.60;3.90;;;22.00;37.10;;;;;;6073711;28;80491;-66
2022/12/13 03:34:40;;;;;;;4.82;3.67;;;22.00;37.10;;;;;;6067719;28;84733;-65
2022/12/13 03:37:40;;;;;;;6.30;3.38;;;22.00;37.20;;;;;;6063427;28;83828;-65
2022/12/13 03:40:41;;;;;;;5.38;3.70;;;22.00;37.00;;;;;;6072744;28;80204;-65
2022/12/13 03:43:41;;;;;;;4.70;3.72;;;22.00;37.10;;;;;;6057105;28;80986;-59
2022/12/13 03:46:42;;;;;;;5.75;3.88;;;22.00;37.10;;;;;;6058594;28;80665;-59
2022/12/13 03:49:42;;;;;;;6.55;3.55;;;22.00;37.10;;;;;;6067590;28;80842;-59
2022/12/13 03:52:43;;;;;;;4.13;3.33;;;22.00;37.70;;;;;;6067421;28;80117;-60
2022/12/13 03:55:43;;;;;;;5.15;3.13;;;22.00;37.90;;;;;;6066017;28;80444;-60
2022/12/13 03:58:44;;;;;;;4.75;3.33;;;22.00;38.30;;;;;;6054336;28;80573;-61
2022/12/13 04:01:44;;;;;;;4.25;3.30;;;22.00;38.10;;;;;;6068033;28;80567;-62
2022/12/13 04:04:45;;;;;;;6.35;3.25;;;22.00;38.30;;;;;;6077560;28;80414;-67
2022/12/13 04:07:45;;;;;;;4.03;3.25;;;22.00;38.20;;;;;;6059213;28;81044;-66
2022/12/13 04:10:46;;;;;;;4.13;3.20;;;22.00;38.00;;;;;;6074550;28;81177;-67
2022/12/13 04:13:46;;;;;;;4.15;3.10;;;22.00;37.90;;;;;;6066371;28;83754;-66
2022/12/13 04:16:47;;;;;;;4.57;3.25;;;22.00;38.00;;;;;;6064194;28;86502;-66
2022/12/13 04:19:48;;;;;;;4.68;3.63;;;22.00;37.30;;;;;;6088078;28;80210;-70
2022/12/13 04:22:48;;;;;;;5.05;3.33;;;22.10;36.90;;;;;;6061514;28;80555;-71
2022/12/13 04:25:49;;;;;;;4.88;3.78;;;22.20;36.60;;;;;;6066545;28;80858;-68
2022/12/13 04:28:49;;;;;;;6.00;4.22;;;22.20;36.30;;;;;;6057513;28;80758;-70
2022/12/13 04:31:50;;;;;;;5.05;3.88;;;22.30;36.20;;;;;;6064444;28;81173;-70
2022/12/13 04:34:50;;;;;;;5.40;3.95;;;22.40;36.10;;;;;;6071284;28;80491;-71
2022/12/13 05:26:36;;;;;;;9.85;4.68;;;22.70;34.80;;;;;;6108479;28;83510;-60
2022/12/13 05:29:36;;;;;;;12.07;4.88;;;22.80;35.20;;;;;;6126863;28;80795;-61
2022/12/13 05:32:39;;;;;;;7.60;4.95;;;22.80;35.30;;;;;;6110789;28;81586;-62
2022/12/13 05:35:40;;;;;;;8.38;4.13;;;22.80;35.40;;;;;;6118450;28;80558;-60
2022/12/13 05:38:40;;;;;;;7.43;4.32;;;22.80;35.40;;;;;;6121121;28;82727;-62
2022/12/13 05:41:41;;;;;;;7.20;4.57;;;22.80;35.80;;;;;;6131947;28;80926;-63
2022/12/13 05:44:42;;;;;;;8.32;3.92;;;22.90;35.10;;;;;;6144720;28;80533;-60
2022/12/13 05:47:42;;;;;;;6.13;3.97;;;22.90;35.10;;;;;;6135028;28;81874;-59
2022/12/13 05:50:43;;;;;;;9.75;4.03;;;22.90;35.00;;;;;;6155175;28;81495;-64
2022/12/13 05:53:43;;;;;;;6.22;4.05;;;22.90;35.10;;;;;;6139414;28;81132;-60
2022/12/13 05:56:44;;;;;;;6.97;4.45;;;23.00;35.00;;;;;;6145111;28;83170;-62
2022/12/13 05:59:44;;;;;;;9.30;4.30;;;22.90;36.50;;;;;;6118991;28;80439;-60
2022/12/13 06:02:45;;;;;;;7.43;3.90;;;22.90;37.20;;;;;;6106043;28;84016;-59
2022/12/13 06:05:45;;;;;;;8.18;3.88;;;22.90;37.90;;;;;;6108002;28;81334;-60
2022/12/13 06:08:47;;;;;;;7.85;4.43;;;22.90;38.40;;;;;;6109531;28;80885;-60
2022/12/13 06:11:48;;;;;;;5.22;3.55;;;22.90;38.70;;;;;;6115149;28;81198;-59
2022/12/13 06:14:48;;;;;;;5.90;3.90;;;22.80;38.70;;;;;;6110934;28;80589;-59
2022/12/13 06:17:49;;;;;;;10.55;3.90;;;22.80;38.60;;;;;;6106202;28;80892;-59
2022/12/13 06:20:49;;;;;;;7.20;4.28;;;22.80;38.60;;;;;;6110533;28;81555;-59
2022/12/13 06:23:50;;;;;;;7.15;3.90;;;22.80;39.00;;;;;;6098507;28;81155;-59
2022/12/13 06:26:50;;;;;;;8.07;3.90;;;22.80;39.50;;;;;;6118520;28;83662;-59
2022/12/13 06:29:51;;;;;;;5.03;3.63;;;22.70;39.60;;;;;;6119118;28;80790;-59
2022/12/13 06:32:51;;;;;;;6.25;4.10;;;22.70;39.50;;;;;;6141038;28;80458;-59
2022/12/13 06:35:52;;;;;;;12.88;6.00;;;22.60;39.40;;;;;;6144893;28;80972;-59
2022/12/13 06:38:52;;;;;;;10.05;5.75;;;22.50;40.00;;;;;;6138554;28;80507;-59
2022/12/13 06:41:53;;;;;;;10.73;6.00;;;22.40;40.00;;;;;;6151254;28;81309;-58
2022/12/13 06:44:53;;;;;;;11.55;6.30;;;22.40;39.90;;;;;;6140337;28;80990;-58
2022/12/13 06:47:54;;;;;;;12.02;6.25;;;22.30;39.30;;;;;;6135634;28;81001;-68
2022/12/13 06:50:54;;;;;;;10.27;7.00;;;22.30;39.40;;;;;;6139908;28;82896;-69
2022/12/13 06:53:55;;;;;;;14.40;7.40;;;22.30;40.10;;;;;;6144922;28;82124;-71
2022/12/13 06:56:56;;;;;;;11.23;6.20;;;22.30;40.50;;;;;;6146806;28;80727;-68
2022/12/13 06:59:56;;;;;;;8.82;5.70;;;22.30;40.60;;;;;;6117843;28;83870;-62
2022/12/13 07:02:57;;;;;;;9.60;5.82;;;22.30;40.80;;;;;;6099798;28;81080;-71
2022/12/13 07:05:57;;;;;;;12.15;5.35;;;22.30;41.00;;;;;;6105816;28;80998;-63
2022/12/13 07:08:58;;;;;;;10.05;5.35;;;22.30;40.90;;;;;;6119585;28;85116;-63
2022/12/13 07:11:58;;;;;;;8.75;5.28;;;22.30;41.00;;;;;;6146303;28;80586;-61
2022/12/13 07:14:59;;;;;;;8.93;5.35;;;22.20;41.40;;;;;;6137509;28;84345;-62
2022/12/13 07:18:00;;;;;;;11.82;5.28;;;22.30;41.50;;;;;;6138794;28;84858;-61
2022/12/13 07:21:00;;;;;;;10.35;5.40;;;22.20;41.70;;;;;;6137953;28;81836;-62
2022/12/13 07:24:02;;;;;;;9.65;5.55;;;22.20;42.20;;;;;;6116343;28;80206;-69
2022/12/13 07:27:03;;;;;;;8.35;5.03;;;22.30;42.30;;;;;;6139967;28;80339;-70
2022/12/13 07:30:03;;;;;;;9.82;6.10;;;22.30;42.10;;;;;;6143111;28;80614;-66
2022/12/13 07:33:04;;;;;;;7.88;4.88;;;22.30;41.70;;;;;;6137803;28;80102;-67
2022/12/13 07:36:05;;;;;;;9.63;5.10;;;22.30;41.50;;;;;;6157121;28;80986;-70
2022/12/13 07:39:06;;;;;;;7.38;4.95;;;22.30;41.60;;;;;;6131227;28;80806;-71
2022/12/13 07:42:06;;;;;;;8.88;5.22;;;22.30;41.70;;;;;;6112233;28;80517;-60
2022/12/13 07:45:07;;;;;;;7.65;4.72;;;22.30;41.60;;;;;;6124893;28;81329;-59
2022/12/13 07:48:07;;;;;;;9.85;5.07;;;22.40;41.40;;;;;;6123275;28;80894;-59
2022/12/13 07:51:10;;;;;;;11.10;4.68;;;22.30;42.10;;;;;;6150789;28;80954;-60
2022/12/13 07:54:11;;;;;;;8.52;5.25;;;22.30;42.50;;;;;;6147635;28;81323;-60
2022/12/13 07:57:12;;;;;;;8.75;5.07;;;22.30;43.60;;;;;;6158962;28;80676;-61
2022/12/13 08:00:12;;;;;;;9.13;5.40;;;22.30;43.90;;;;;;6148284;28;80771;-79
2022/12/13 08:03:15;;;;;;;15.75;5.70;;;22.20;44.50;;;;;;6160647;28;80484;-77
2022/12/13 08:06:18;;;;;;;8.30;5.10;;;22.20;43.90;;;;;;6155817;28;85589;-77
2022/12/13 08:09:18;;;;;;;8.43;5.10;;;22.20;44.20;;;;;;6144462;28;80954;-75
2022/12/13 08:12:19;;;;;;;8.27;5.18;;;22.20;44.20;;;;;;6138704;28;85951;-77
2022/12/13 08:15:20;;;;;;;7.63;4.72;;;22.10;43.90;;;;;;6145049;28;85788;-73
2022/12/13 08:18:21;;;;;;;8.40;4.47;;;22.20;43.90;;;;;;6134622;28;82950;-75
2022/12/13 08:21:21;;;;;;;7.28;4.50;;;22.10;44.50;;;;;;6134218;28;81404;-71
2022/12/13 08:24:22;;;;;;;6.75;4.38;;;22.20;44.10;;;;;;6134339;28;80591;-74
2022/12/13 08:27:22;;;;;;;7.68;4.05;;;22.20;45.00;;;;;;6137259;28;81087;-70
2022/12/13 08:30:23;;;;;;;7.85;4.25;;;22.20;44.70;;;;;;6128466;28;80378;-73
2022/12/13 08:33:24;;;;;;;8.35;4.22;;;22.20;44.70;;;;;;6125046;28;80681;-70
2022/12/13 08:36:24;;;;;;;8.55;4.65;;;22.20;45.20;;;;;;6149607;28;80656;-70
2022/12/13 08:39:26;;;;;;;10.80;4.30;;;22.20;45.80;;;;;;6160766;28;80900;-67
2022/12/13 08:42:27;;;;;;;8.23;4.43;;;22.20;46.30;;;;;;6144221;28;85342;-65
2022/12/13 08:45:27;;;;;;;13.68;4.97;;;22.10;46.60;;;;;;6131118;28;80904;-62
2022/12/13 08:48:28;;;;;;;7.90;4.43;;;22.20;47.20;;;;;;6138655;28;80841;-63
2022/12/13 08:51:28;;;;;;;8.57;4.60;;;22.20;47.60;;;;;;6138423;28;81020;-64
2022/12/13 08:54:29;;;;;;;11.43;5.05;;;22.20;47.50;;;;;;6132753;28;83954;-65
2022/12/13 08:57:29;;;;;;;9.05;4.30;;;22.20;47.90;;;;;;6128840;28;81068;-65
2022/12/13 09:00:30;;;;;;;6.38;4.18;;;22.20;47.50;;;;;;6148328;28;81509;-62
2022/12/13 09:03:30;;;;;;;8.45;4.00;;;22.20;47.70;;;;;;6154623;28;81342;-66
2022/12/13 09:06:31;;;;;;;7.30;4.72;;;22.30;47.90;;;;;;6137362;28;82692;-63
2022/12/13 09:09:31;;;;;;;14.40;8.93;;;22.20;47.60;;;;;;6132380;28;82107;-63
2022/12/13 09:12:32;;;;;;;54.67;29.85;;;22.30;48.40;;;;;;6146501;28;81360;-62
2022/12/13 09:15:32;;;;;;;76.82;45.15;;;22.30;47.60;;;;;;6145770;28;83262;-73
2022/12/13 09:18:33;;;;;;;98.20;56.40;;;22.30;48.00;;;;;;6162529;28;84215;-72
2022/12/13 09:21:33;;;;;;;119.32;62.63;;;22.30;47.90;;;;;;6147894;28;88322;-70
2022/12/13 09:24:34;;;;;;;124.18;72.70;;;22.40;47.80;;;;;;6144952;28;88858;-77
2022/12/13 09:27:34;;;;;;;143.77;80.10;;;22.40;47.70;;;;;;6143061;28;87576;-74
2022/12/13 09:30:35;;;;;;;154.10;87.90;;;22.40;47.70;;;;;;6149156;28;89207;-76
2022/12/13 09:33:36;;;;;;;174.85;99.38;;;22.40;47.60;;;;;;6148786;28;86604;-61
2022/12/13 09:36:36;;;;;;;176.75;96.97;;;22.50;47.50;;;;;;6152219;28;84793;-60
2022/12/13 09:39:36;;;;;;;136.70;77.90;;;22.50;47.00;;;;;;6149425;28;84468;-65
2022/12/13 09:42:37;;;;;;;155.13;88.47;;;22.50;47.00;;;;;;6125585;28;83345;-60
2022/12/13 09:45:37;;;;;;;159.82;89.82;;;22.50;47.40;;;;;;6133609;28;88984;-63
2022/12/13 09:48:38;;;;;;;166.32;94.85;;;22.50;47.00;;;;;;6133345;28;89009;-62
2022/12/13 09:51:39;;;;;;;193.30;104.65;;;22.50;47.50;;;;;;6129189;28;84273;-71
2022/12/13 09:54:39;;;;;;;201.18;107.78;;;22.60;47.10;;;;;;6148184;28;86366;-72
2022/12/13 09:57:40;;;;;;;208.35;114.65;;;22.60;46.90;;;;;;6138245;28;90380;-70
2022/12/13 10:00:40;;;;;;;227.93;120.25;;;22.60;46.70;;;;;;6149855;28;85675;-63
2022/12/13 10:03:41;;;;;;;221.93;119.63;;;22.60;47.40;;;;;;6140702;28;85395;-63
2022/12/13 10:06:41;;;;;;;251.93;130.43;;;22.60;47.00;;;;;;6131779;28;90448;-65
2022/12/13 10:09:42;;;;;;;220.65;119.03;;;22.60;46.90;;;;;;6141276;28;86142;-65
2022/12/13 10:12:42;;;;;;;196.68;104.03;;;22.60;46.80;;;;;;6117220;28;89258;-66
2022/12/13 10:15:43;;;;;;;186.07;98.88;;;22.60;46.70;;;;;;6121742;28;86137;-64
2022/12/13 10:18:44;;;;;;;159.50;86.95;;;22.50;46.50;;;;;;6120873;28;89974;-64
2022/12/13 10:21:44;;;;;;;151.45;78.25;;;22.50;46.40;;;;;;6136244;28;84281;-66
2022/12/13 10:24:45;;;;;;;134.95;71.25;;;22.40;46.60;;;;;;6128628;28;87268;-65
2022/12/13 10:27:45;;;;;;;113.13;65.82;;;22.40;46.80;;;;;;6112447;28;83668;-66
2022/12/13 10:30:46;;;;;;;106.82;60.05;;;22.50;46.90;;;;;;5817805;28;86240;-69
2022/12/13 10:33:46;;;;;;;105.88;57.88;;;22.50;46.80;;;;;;6124533;28;85213;-64
2022/12/13 10:36:47;;;;;;;97.97;51.78;;;22.50;47.00;;;;;;6142540;28;83647;-67
2022/12/13 10:39:48;;;;;;;87.50;49.20;;;22.50;47.00;;;;;;6135391;28;83366;-65
2022/12/13 10:42:48;;;;;;;83.20;46.92;;;22.50;47.10;;;;;;6138741;28;83398;-66
2022/12/13 10:45:49;;;;;;;81.53;44.35;;;22.50;47.20;;;;;;6115162;28;83807;-59
2022/12/13 10:48:49;;;;;;;73.18;42.42;;;22.60;47.20;;;;;;6131965;28;83568;-59
2022/12/13 10:51:50;;;;;;;77.57;40.17;;;22.50;47.40;;;;;;6132065;28;89343;-60
2022/12/13 10:54:51;;;;;;;69.03;39.05;;;22.60;47.60;;;;;;6139998;28;83704;-58
2022/12/13 10:57:51;;;;;;;69.00;36.45;;;22.70;47.60;;;;;;6137365;28;88980;-61
2022/12/13 11:00:52;;;;;;;65.13;35.10;;;22.90;47.20;;;;;;6139355;28;84389;-58
2022/12/13 11:03:53;;;;;;;63.67;33.08;;;23.20;46.50;;;;;;6138498;28;84488;-60
2022/12/13 11:06:54;;;;;;;61.40;33.78;;;23.40;45.70;;;;;;6132166;28;83110;-61
2022/12/13 11:09:54;;;;;;;54.45;30.10;;;23.60;45.40;;;;;;6139931;28;83463;-61
2022/12/13 11:12:55;;;;;;;46.65;24.38;;;23.70;44.70;;;;;;6135779;28;82795;-60
2022/12/13 11:15:55;;;;;;;45.10;23.15;;;23.70;44.30;;;;;;6148641;28;84810;-60
2022/12/13 11:18:56;;;;;;;37.75;22.17;;;23.70;44.90;;;;;;6144807;28;83723;-60
2022/12/13 11:21:58;;;;;;;35.45;21.15;;;23.60;45.00;;;;;;6158312;28;83104;-60
2022/12/13 11:24:58;;;;;;;41.13;21.35;;;23.50;45.70;;;;;;6142308;28;84842;-61
2022/12/13 11:27:59;;;;;;;36.30;20.38;;;23.40;45.80;;;;;;6144139;28;84458;-60
2022/12/13 11:31:00;;;;;;;32.30;17.45;;;23.40;45.50;;;;;;6144645;28;86888;-61
2022/12/13 11:34:01;;;;;;;32.15;18.02;;;23.30;45.60;;;;;;6154066;28;84917;-60
2022/12/13 11:37:01;;;;;;;31.05;16.15;;;23.40;46.70;;;;;;6133284;28;84563;-58
2022/12/13 11:40:02;;;;;;;30.27;16.48;;;23.40;45.90;;;;;;6121529;28;87032;-61
2022/12/13 11:43:02;;;;;;;27.90;15.18;;;23.40;45.70;;;;;;6124970;28;83452;-60
2022/12/13 11:46:03;;;;;;;27.45;15.50;;;23.40;45.70;;;;;;6142270;28;86899;-59
2022/12/13 11:49:03;;;;;;;29.05;14.43;;;23.50;45.50;;;;;;6131621;28;83353;-59
2022/12/13 11:52:04;;;;;;;23.42;14.25;;;23.60;45.00;;;;;;6139643;28;87241;-61
2022/12/13 11:55:04;;;;;;;23.35;13.15;;;23.70;44.60;;;;;;6141192;28;83376;-60
2022/12/13 11:58:05;;;;;;;21.88;12.45;;;23.80;44.60;;;;;;6137630;28;85117;-64
2022/12/13 12:01:05;;;;;;;23.55;12.50;;;23.80;44.30;;;;;;6144955;28;83976;-69
2022/12/13 12:04:06;;;;;;;20.75;10.50;;;23.80;44.40;;;;;;6141687;28;83808;-70
2022/12/13 12:07:08;;;;;;;17.65;11.48;;;23.80;44.80;;;;;;6144455;28;84159;-68
2022/12/13 12:10:09;;;;;;;19.23;10.90;;;23.70;45.00;;;;;;6143789;28;85707;-71
2022/12/13 12:13:09;;;;;;;23.92;10.77;;;23.70;45.20;;;;;;6141946;28;83591;-67
2022/12/13 12:16:10;;;;;;;17.02;10.15;;;23.70;44.90;;;;;;6136189;28;84447;-68
2022/12/13 12:19:10;;;;;;;18.42;10.05;;;23.70;45.30;;;;;;6127378;28;84224;-65
2022/12/13 12:22:11;;;;;;;18.10;9.93;;;23.70;44.80;;;;;;6152346;28;82788;-68
2022/12/13 12:25:11;;;;;;;18.15;10.00;;;23.70;45.00;;;;;;6154975;28;82213;-64
2022/12/13 12:28:12;;;;;;;15.38;8.80;;;23.60;45.20;;;;;;6154990;28;83376;-67
2022/12/13 12:31:13;;;;;;;13.93;8.88;;;23.60;45.30;;;;;;6136623;28;87469;-67
2022/12/13 12:34:14;;;;;;;16.48;8.80;;;23.50;45.30;;;;;;6147537;28;80845;-67
2022/12/13 12:37:14;;;;;;;12.32;8.35;;;23.50;45.50;;;;;;6125456;28;84958;-61
2022/12/13 12:40:15;;;;;;;15.73;8.80;;;23.40;46.30;;;;;;6133551;28;83018;-63
2022/12/13 12:43:15;;;;;;;17.55;7.85;;;23.30;46.10;;;;;;6129190;28;85707;-63
2022/12/13 12:46:16;;;;;;;13.27;7.05;;;23.30;46.10;;;;;;6155954;28;80810;-64
2022/12/13 12:49:16;;;;;;;12.90;8.10;;;23.20;46.30;;;;;;6138867;28;80580;-63
2022/12/13 12:52:17;;;;;;;13.65;8.13;;;23.20;46.30;;;;;;6150945;28;80719;-67
2022/12/13 12:55:18;;;;;;;11.40;7.20;;;23.10;46.40;;;;;;6130681;28;81538;-62
2022/12/13 12:58:18;;;;;;;12.18;7.40;;;23.00;46.20;;;;;;6135425;28;81490;-63
2022/12/13 13:01:18;;;;;;;9.88;7.18;;;23.00;46.60;;;;;;6121376;28;81137;-62
2022/12/13 13:04:19;;;;;;;12.45;7.55;;;22.90;45.80;;;;;;6121257;28;81312;-64
2022/12/13 13:07:20;;;;;;;15.50;6.82;;;22.90;45.70;;;;;;6143945;28;83005;-62
2022/12/13 13:10:20;;;;;;;11.00;7.07;;;22.80;45.80;;;;;;6138550;28;80815;-62
2022/12/13 13:13:21;;;;;;;10.77;7.03;;;22.80;46.40;;;;;;6139318;28;80932;-62
2022/12/13 13:16:21;;;;;;;10.68;7.00;;;22.80;46.50;;;;;;6138750;28;80513;-62
2022/12/13 13:19:22;;;;;;;9.07;6.65;;;22.70;46.30;;;;;;6155397;28;81605;-62
2022/12/13 13:22:22;;;;;;;11.10;6.45;;;22.80;46.20;;;;;;6131272;28;83554;-64
2022/12/13 13:25:24;;;;;;;15.80;7.32;;;22.80;45.60;;;;;;6131765;28;80568;-63
2022/12/13 13:28:25;;;;;;;11.30;6.68;;;22.80;45.90;;;;;;6138363;28;80627;-61
2022/12/13 13:31:26;;;;;;;10.43;6.93;;;22.80;46.00;;;;;;6137306;28;81167;-70
2022/12/13 13:34:26;;;;;;;9.55;6.18;;;22.80;45.70;;;;;;6133322;28;80799;-69
2022/12/13 13:37:27;;;;;;;11.20;6.80;;;22.80;45.40;;;;;;6134884;28;80527;-69
2022/12/13 13:40:28;;;;;;;10.13;6.88;;;22.80;45.50;;;;;;6134574;28;81805;-69
2022/12/13 13:43:28;;;;;;;12.15;6.93;;;22.70;45.20;;;;;;6128816;28;82104;-68
2022/12/13 13:46:29;;;;;;;10.15;6.70;;;22.80;45.30;;;;;;6135857;28;80639;-67
2022/12/13 13:49:29;;;;;;;13.25;7.47;;;22.70;45.80;;;;;;6128632;28;83630;-62
2022/12/13 13:52:30;;;;;;;9.82;6.10;;;22.80;45.60;;;;;;6134440;28;80894;-65
2022/12/13 13:55:31;;;;;;;10.80;6.32;;;22.80;45.70;;;;;;6131397;28;81147;-64
2022/12/13 13:58:31;;;;;;;11.15;6.55;;;22.80;44.90;;;;;;6129847;28;80485;-64
2022/12/13 14:01:32;;;;;;;10.90;6.55;;;22.80;45.20;;;;;;6131545;28;81047;-64
2022/12/13 14:04:33;;;;;;;10.60;7.00;;;22.70;45.10;;;;;;6129954;28;85419;-65
2022/12/13 14:07:33;;;;;;;9.73;7.10;;;22.70;45.30;;;;;;6124749;28;80699;-70
2022/12/13 14:10:34;;;;;;;12.10;7.30;;;22.70;45.40;;;;;;6126180;28;84502;-71
2022/12/13 14:13:34;;;;;;;10.90;6.82;;;22.70;45.90;;;;;;6128973;28;80608;-67
2022/12/13 14:16:35;;;;;;;13.73;7.80;;;22.70;45.80;;;;;;6109380;28;80384;-68
2022/12/13 14:19:35;;;;;;;11.32;7.72;;;22.70;45.90;;;;;;6132234;28;81501;-67
2022/12/13 14:22:36;;;;;;;24.95;8.82;;;22.60;45.70;;;;;;6128389;28;80798;-67
2022/12/13 14:25:36;;;;;;;37.45;12.80;;;22.60;46.20;;;;;;6140012;28;81680;-64
2022/12/13 14:28:37;;;;;;;36.88;13.38;;;22.60;46.70;;;;;;6124762;28;83369;-67
2022/12/13 14:31:37;;;;;;;41.85;14.20;;;22.60;47.00;;;;;;6138795;28;83201;-66
2022/12/13 14:34:38;;;;;;;49.20;16.48;;;22.60;47.80;;;;;;6138355;28;86247;-69
2022/12/13 14:37:38;;;;;;;50.03;14.82;;;22.70;47.80;;;;;;6137880;28;83069;-66
2022/12/13 14:40:39;;;;;;;49.90;15.35;;;22.80;48.00;;;;;;6128349;28;85996;-66
2022/12/13 14:43:39;;;;;;;45.47;16.38;;;22.80;48.90;;;;;;6135511;28;83607;-60
2022/12/13 14:46:40;;;;;;;55.97;18.05;;;22.80;48.30;;;;;;6123517;28;90778;-75
2022/12/13 14:49:40;;;;;;;52.83;18.08;;;22.80;48.50;;;;;;6133824;28;87847;-67
2022/12/13 14:52:41;;;;;;;54.78;18.30;;;22.80;48.20;;;;;;6113275;28;85588;-69
2022/12/13 14:55:41;;;;;;;48.67;16.55;;;22.80;48.50;;;;;;6117803;28;88781;-60
2022/12/13 14:58:42;;;;;;;48.38;16.33;;;22.80;48.30;;;;;;6142216;28;83776;-70
2022/12/13 15:01:46;;;;;;;40.10;15.77;;;22.80;47.90;;;;;;6147368;28;84439;-70
2022/12/13 15:04:46;;;;;;;43.30;15.70;;;22.80;48.70;;;;;;6147329;28;88420;-63
2022/12/13 15:07:48;;;;;;;40.08;14.85;;;22.80;47.70;;;;;;6129304;28;86505;-74
2022/12/13 15:10:49;;;;;;;45.50;16.50;;;22.80;47.60;;;;;;6135052;28;84488;-83
2022/12/13 15:13:52;;;;;;;39.97;14.45;;;22.80;47.60;;;;;;6131741;28;86164;-70
2022/12/13 15:16:53;;;;;;;32.70;14.18;;;22.80;47.60;;;;;;6151073;28;83128;-68
2022/12/13 15:19:57;;;;;;;34.10;13.63;;;22.80;47.60;;;;;;6148676;28;84617;-71
2022/12/13 15:22:58;;;;;;;38.50;14.27;;;22.80;47.50;;;;;;6131012;28;83026;-71
2022/12/13 15:26:05;;;;;;;27.58;12.88;;;22.80;47.60;;;;;;6116522;28;87587;-74
2022/12/13 15:29:06;;;;;;;32.88;13.40;;;22.90;47.70;;;;;;6122787;28;83052;-70
2022/12/13 15:32:07;;;;;;;31.02;12.65;;;22.90;47.60;;;;;;6120397;28;84141;-73
2022/12/13 15:35:08;;;;;;;29.65;12.50;;;22.90;47.70;;;;;;6136540;28;83600;-68
2022/12/13 15:38:08;;;;;;;24.80;12.65;;;22.90;47.60;;;;;;6120710;28;86331;-72
2022/12/13 15:41:09;;;;;;;26.95;12.57;;;22.90;47.70;;;;;;6136576;28;86509;-65
2022/12/13 15:44:09;;;;;;;31.10;12.90;;;22.80;47.60;;;;;;6142641;28;83351;-64
2022/12/13 15:47:10;;;;;;;26.38;12.15;;;22.80;47.30;;;;;;6135761;28;83051;-62
2022/12/13 15:50:10;;;;;;;23.75;11.27;;;22.80;47.00;;;;;;6108568;28;86943;-61
2022/12/13 15:53:11;;;;;;;22.92;10.45;;;22.80;46.60;;;;;;6133171;28;83246;-59
2022/12/13 15:56:11;;;;;;;19.17;10.35;;;22.70;46.50;;;;;;6137296;28;84509;-58
2022/12/13 15:59:12;;;;;;;21.15;10.45;;;22.70;46.50;;;;;;6099970;28;88171;-75
2022/12/13 16:02:12;;;;;;;20.42;10.35;;;22.70;46.60;;;;;;6118032;28;84786;-76
2022/12/13 16:05:13;;;;;;;20.58;9.63;;;22.70;46.50;;;;;;6104335;28;83914;-74
2022/12/13 16:08:13;;;;;;;19.98;9.63;;;22.70;46.30;;;;;;6123938;28;82998;-79
2022/12/13 16:11:14;;;;;;;17.80;10.38;;;22.70;46.20;;;;;;6121129;28;82347;-72
2022/12/13 16:14:15;;;;;;;24.08;9.35;;;22.60;46.40;;;;;;6133292;28;83001;-70
2022/12/13 16:17:15;;;;;;;16.05;9.30;;;22.60;46.40;;;;;;6115376;28;85661;-61